createdAt,value
2023-03-06T00:00:00.431Z,9.74
2023-03-06T00:05:00.444Z,10.18
2023-03-06T00:10:00.454Z,11.52
2023-03-06T00:15:00.542Z,9.24
2023-03-06T00:20:02.867Z,10.11
2023-03-06T00:25:00.335Z,10.25
2023-03-06T00:30:01.638Z,9.26
2023-03-06T00:35:01.406Z,9.70
2023-03-06T00:40:00.457Z,11.14
2023-03-06T00:45:02.266Z,11.63
2023-03-06T00:50:00.336Z,11.23
2023-03-06T00:55:00.365Z,10.51
2023-03-06T01:00:00.460Z,10.52
2023-03-06T01:05:00.584Z,11.43
2023-03-06T01:10:02.524Z,11.32
2023-03-06T01:15:00.357Z,9.43
2023-03-06T01:20:00.695Z,10.91
2023-03-06T01:25:00.601Z,11.12
2023-03-06T01:30:01.598Z,9.51
2023-03-06T01:35:00.293Z,12.04
2023-03-06T01:40:00.438Z,11.86
2023-03-06T01:45:00.601Z,11.88
2023-03-06T01:50:01.429Z,12.69
2023-03-06T01:55:00.354Z,12.53
2023-03-06T02:00:01.961Z,12.20
2023-03-06T02:05:00.299Z,11.86
2023-03-06T02:10:00.447Z,13.69
2023-03-06T02:15:00.780Z,12.00
2023-03-06T02:20:00.332Z,12.85
2023-03-06T02:25:04.064Z,12.35
2023-03-06T02:30:00.423Z,12.30
2023-03-06T02:35:00.349Z,12.63
2023-03-06T02:40:00.620Z,13.92
2023-03-06T02:45:01.329Z,12.71
2023-03-06T02:50:00.635Z,14.74
2023-03-06T02:55:00.967Z,15.18
2023-03-06T03:00:01.460Z,13.63
2023-03-06T03:05:00.329Z,13.81
2023-03-06T03:10:00.407Z,14.50
2023-03-06T03:15:00.621Z,15.10
2023-03-06T03:20:00.310Z,14.65
2023-03-06T03:25:00.796Z,14.86
2023-03-06T03:30:03.611Z,15.49
2023-03-06T03:35:00.366Z,14.74
2023-03-06T03:40:00.677Z,15.02
2023-03-06T03:45:01.616Z,13.89
2023-03-06T03:50:00.420Z,13.62
2023-03-06T03:55:01.571Z,15.05
2023-03-06T04:00:00.400Z,14.61
2023-03-06T04:05:00.374Z,13.88
2023-03-06T04:10:00.428Z,15.02
2023-03-06T04:15:00.893Z,14.09
2023-03-06T04:20:00.272Z,14.43
2023-03-06T04:25:00.323Z,13.85
2023-03-06T04:30:00.406Z,14.13
2023-03-06T04:35:00.320Z,14.89
2023-03-06T04:40:01.720Z,14.18
2023-03-06T04:45:01.438Z,15.26
2023-03-06T04:50:00.397Z,14.03
2023-03-06T04:55:00.643Z,14.90
2023-03-06T05:00:00.444Z,17.04
2023-03-06T05:05:00.278Z,14.95
2023-03-06T05:10:00.602Z,16.76
2023-03-06T05:15:00.712Z,15.87
2023-03-06T05:20:01.314Z,15.71
2023-03-06T05:25:00.453Z,16.64
2023-03-06T05:30:02.357Z,16.28
2023-03-06T05:35:00.276Z,17.39
2023-03-06T05:40:00.490Z,16.80
2023-03-06T05:45:02.064Z,15.21
2023-03-06T05:50:00.285Z,15.24
2023-03-06T05:55:02.509Z,15.72
2023-03-06T06:00:00.370Z,16.71
2023-03-06T06:05:00.324Z,16.15
2023-03-06T06:10:03.614Z,16.81
2023-03-06T06:15:01.556Z,15.74
2023-03-06T06:20:01.340Z,16.68
2023-03-06T06:25:00.337Z,16.54
2023-03-06T06:30:00.841Z,16.23
2023-03-06T06:35:01.409Z,15.62
2023-03-06T06:40:00.484Z,16.42
2023-03-06T06:45:01.117Z,16.09
2023-03-06T06:50:00.312Z,15.91
2023-03-06T06:55:02.365Z,16.23
2023-03-06T07:00:00.404Z,16.65
2023-03-06T07:05:05.098Z,16.40
2023-03-06T07:10:00.697Z,18.94
2023-03-06T07:15:00.639Z,16.96
2023-03-06T07:20:01.441Z,17.55
2023-03-06T07:25:00.292Z,17.40
2023-03-06T07:30:00.430Z,15.88
2023-03-06T07:35:18.946Z,16.81
2023-03-06T07:40:00.322Z,17.44
2023-03-06T07:45:01.115Z,17.93
2023-03-06T07:50:01.501Z,16.33
2023-03-06T07:55:00.325Z,18.31
2023-03-06T08:00:02.926Z,16.55
2023-03-06T08:05:00.346Z,15.47
2023-03-06T08:10:00.562Z,15.37
2023-03-06T08:15:00.527Z,15.67
2023-03-06T08:20:01.380Z,15.52
2023-03-06T08:25:00.597Z,15.37
2023-03-06T08:30:01.230Z,15.46
2023-03-06T08:35:00.573Z,16.11
2023-03-06T08:40:00.426Z,13.24
2023-03-06T08:45:00.951Z,15.53
2023-03-06T08:50:00.831Z,14.26
2023-03-06T08:55:00.347Z,13.70
2023-03-06T09:00:02.060Z,14.56
2023-03-06T09:05:00.296Z,14.01
2023-03-06T09:10:00.470Z,12.91
2023-03-06T09:15:01.554Z,14.97
2023-03-06T09:20:00.313Z,13.05
2023-03-06T09:25:01.378Z,14.52
2023-03-06T09:30:00.698Z,14.03
2023-03-06T09:35:00.520Z,13.17
2023-03-06T09:40:00.348Z,12.68
2023-03-06T09:45:01.371Z,10.96
2023-03-06T09:50:01.492Z,10.90
2023-03-06T09:55:00.315Z,11.38
2023-03-06T10:00:03.478Z,11.23
2023-03-06T10:05:00.341Z,10.62
2023-03-06T10:10:00.421Z,11.10
2023-03-06T10:15:00.932Z,11.72
2023-03-06T10:20:00.285Z,10.70
2023-03-06T10:25:00.684Z,12.45
2023-03-06T10:30:03.594Z,11.07
2023-03-06T10:35:00.314Z,11.42
2023-03-06T10:40:00.733Z,12.31
2023-03-06T10:45:00.512Z,12.98
2023-03-06T10:50:01.434Z,13.34
2023-03-06T10:55:00.338Z,13.75
2023-03-06T11:00:00.463Z,15.19
2023-03-06T11:05:01.439Z,14.81
2023-03-06T11:10:00.326Z,15.13
2023-03-06T11:15:01.298Z,15.66
2023-03-06T11:20:00.297Z,13.59
2023-03-06T11:25:00.603Z,11.89
2023-03-06T11:30:00.696Z,13.25
2023-03-06T11:35:00.369Z,13.16
2023-03-06T11:40:01.460Z,13.29
2023-03-06T11:45:03.078Z,13.22
2023-03-06T11:50:00.313Z,11.66
2023-03-06T11:55:00.714Z,11.04
2023-03-06T12:00:00.478Z,12.69
2023-03-06T12:05:01.702Z,10.89
2023-03-06T12:10:00.322Z,10.40
2023-03-06T12:15:00.833Z,11.02
2023-03-06T12:20:00.440Z,11.21
2023-03-06T12:25:00.426Z,11.32
2023-03-06T12:30:00.967Z,10.12
2023-03-06T12:35:00.454Z,11.54
2023-03-06T12:40:00.367Z,11.74
2023-03-06T12:45:01.547Z,11.46
2023-03-06T12:50:00.282Z,10.35
2023-03-06T12:55:00.376Z,10.90
2023-03-06T13:00:00.562Z,11.45
2023-03-06T13:05:00.457Z,17.81
2023-03-06T13:10:00.561Z,14.09
2023-03-06T13:15:00.614Z,14.22
2023-03-06T13:20:01.382Z,14.94
2023-03-06T13:25:06.857Z,15.22
2023-03-06T13:30:00.511Z,13.22
2023-03-06T13:35:00.305Z,11.58
2023-03-06T13:40:00.414Z,12.02
2023-03-06T13:45:01.378Z,12.22
2023-03-06T13:50:00.318Z,11.21
2023-03-06T13:55:00.342Z,17.03
2023-03-06T14:00:08.973Z,12.26
2023-03-06T14:05:00.323Z,12.56
2023-03-06T14:10:00.680Z,13.35
2023-03-06T14:15:00.465Z,12.06
2023-03-06T14:20:00.330Z,12.13
2023-03-06T14:25:00.294Z,11.88
2023-03-06T14:30:00.518Z,13.17
2023-03-06T14:35:01.391Z,10.87
2023-03-06T14:40:01.700Z,10.15
2023-03-06T14:45:00.850Z,10.09
2023-03-06T14:50:00.318Z,11.07
2023-03-06T14:55:00.390Z,10.77
2023-03-06T15:00:00.857Z,10.31
2023-03-06T15:05:00.334Z,10.31
2023-03-06T15:10:02.448Z,11.28
2023-03-06T15:15:00.410Z,20.09
2023-03-06T15:20:00.366Z,14.49
2023-03-06T15:25:01.539Z,12.71
2023-03-06T15:30:00.907Z,13.70
2023-03-06T15:35:01.450Z,13.68
2023-03-06T15:40:00.668Z,12.88
2023-03-06T15:45:01.667Z,13.99
2023-03-06T15:50:01.359Z,14.04
2023-03-06T15:55:00.339Z,14.61
2023-03-06T16:00:01.883Z,16.71
2023-03-06T16:05:00.318Z,16.36
2023-03-06T16:10:00.366Z,16.83
2023-03-06T16:15:00.528Z,15.49
2023-03-06T16:20:00.325Z,16.50
2023-03-06T16:25:00.444Z,15.97
2023-03-06T16:30:00.840Z,15.00
2023-03-06T16:35:00.346Z,15.69
2023-03-06T16:40:02.023Z,17.80
2023-03-06T16:45:00.413Z,17.98
2023-03-06T16:50:00.581Z,18.87
2023-03-06T16:55:00.384Z,14.84
2023-03-06T17:00:00.637Z,15.05
2023-03-06T17:05:00.318Z,14.62
2023-03-06T17:10:00.418Z,15.85
2023-03-06T17:15:02.601Z,14.82
2023-03-06T17:20:00.333Z,14.44
2023-03-06T17:25:00.408Z,13.01
2023-03-06T17:30:01.085Z,13.48
2023-03-06T17:35:00.317Z,12.96
2023-03-06T17:40:02.191Z,14.80
2023-03-06T17:45:01.573Z,15.79
2023-03-06T17:50:00.346Z,16.07
2023-03-06T17:55:01.476Z,15.77
2023-03-06T18:00:02.011Z,15.85
2023-03-06T18:05:00.745Z,14.63
2023-03-06T18:10:00.357Z,15.77
2023-03-06T18:15:00.466Z,14.82
2023-03-06T18:20:00.500Z,14.98
2023-03-06T18:25:00.351Z,15.63
2023-03-06T18:30:00.733Z,15.62
2023-03-06T18:35:00.316Z,17.46
2023-03-06T18:40:00.351Z,17.47
2023-03-06T18:45:01.249Z,16.79
2023-03-06T18:50:00.317Z,17.23
2023-03-06T18:55:01.773Z,18.48
2023-03-06T19:00:00.372Z,19.13
2023-03-06T19:05:01.383Z,18.37
2023-03-06T19:10:00.700Z,19.55
2023-03-06T19:15:00.439Z,20.45
2023-03-06T19:20:00.396Z,18.79
2023-03-06T19:25:02.706Z,19.91
2023-03-06T19:30:00.669Z,21.01
2023-03-06T19:35:00.348Z,20.55
2023-03-06T19:40:00.465Z,22.48
2023-03-06T19:45:02.011Z,20.09
2023-03-06T19:50:00.328Z,20.70
2023-03-06T19:55:00.643Z,20.64
2023-03-06T20:00:01.525Z,20.52
2023-03-06T20:05:00.373Z,21.60
2023-03-06T20:10:00.740Z,23.09
2023-03-06T20:15:00.449Z,20.46
2023-03-06T20:20:01.496Z,19.97
2023-03-06T20:25:00.310Z,21.44
2023-03-06T20:30:00.510Z,19.04
2023-03-06T20:35:00.442Z,21.12
2023-03-06T20:40:00.416Z,20.41
2023-03-06T20:45:01.534Z,18.56
2023-03-06T20:50:00.307Z,19.61
2023-03-06T20:55:00.440Z,18.89
2023-03-06T21:00:00.971Z,19.28
2023-03-06T21:05:00.400Z,20.32
2023-03-06T21:10:00.351Z,18.47
2023-03-06T21:15:01.914Z,19.68
2023-03-06T21:20:00.525Z,19.29
2023-03-06T21:25:00.485Z,20.97
2023-03-06T21:30:00.744Z,19.12
2023-03-06T21:35:00.292Z,19.79
2023-03-06T21:40:01.248Z,20.38
2023-03-06T21:45:00.495Z,20.13
2023-03-06T21:50:00.523Z,19.35
2023-03-06T21:55:02.270Z,20.10
2023-03-06T22:00:01.601Z,20.81
2023-03-06T22:05:00.295Z,21.14
2023-03-06T22:10:00.453Z,21.85
2023-03-06T22:15:00.716Z,20.60
2023-03-06T22:20:00.334Z,22.98
2023-03-06T22:25:01.482Z,23.54
2023-03-06T22:30:00.465Z,21.46
2023-03-06T22:35:00.306Z,19.69
2023-03-06T22:40:00.383Z,21.92
2023-03-06T22:45:00.676Z,21.28
2023-03-06T22:50:01.304Z,20.54
2023-03-06T22:55:00.310Z,20.79
2023-03-06T23:00:01.517Z,21.64
2023-03-06T23:05:00.311Z,20.28
2023-03-06T23:10:00.351Z,19.30
2023-03-06T23:15:01.319Z,20.37
2023-03-06T23:20:00.309Z,20.04
2023-03-06T23:25:00.357Z,22.52
2023-03-06T23:30:00.986Z,21.22
2023-03-06T23:35:00.315Z,23.27
2023-03-06T23:40:00.643Z,22.35
2023-03-06T23:45:01.109Z,22.80
2023-03-06T23:50:02.950Z,22.47
2023-03-06T23:55:00.336Z,22.58
